Time;durP1;ratioP1;P1;durP2;ratioP2;P2;SDS_P1;SDS_P2;PMS_P1;PMS_P2;Temp;Humidity;BMP_temperature;BMP_pressure;BME280_temperature;BME280_humidity;BME280_pressure;Samples;Min_cycle;Max_cycle;Signal;HPM_P1;HPM_P2
2021/04/30 00:00:21;;;;;;;10.55;9.45;;;;;;;17.44;49.90;99386.31;5054713;28;20103;-74
2021/04/30 00:02:46;;;;;;;12.80;9.20;;;;;;;17.54;50.02;99409.00;5054782;28;20064;-77
2021/04/30 00:05:12;;;;;;;14.10;9.98;;;;;;;17.38;50.31;99397.09;5054853;28;20107;-76
2021/04/30 00:07:38;;;;;;;11.50;9.18;;;;;;;17.44;50.32;99410.34;5054600;28;20088;-75
2021/04/30 00:10:05;;;;;;;14.77;10.48;;;;;;;17.15;50.12;99373.78;5037035;28;20351;-76
2021/04/30 00:12:31;;;;;;;13.43;10.05;;;;;;;17.21;50.30;99396.06;5054645;28;20064;-75
2021/04/30 00:14:56;;;;;;;11.18;9.95;;;;;;;17.35;50.70;99434.91;5054674;28;20439;-75
2021/04/30 00:17:22;;;;;;;12.93;10.80;;;;;;;17.19;50.53;99414.97;5054432;28;20029;-77
2021/04/30 00:19:47;;;;;;;13.63;10.52;;;;;;;17.21;50.58;99420.09;5036915;28;20017;-77
2021/04/30 00:22:13;;;;;;;12.88;10.50;;;;;;;17.18;50.79;99418.69;5054531;28;20025;-76
2021/04/30 00:24:39;;;;;;;11.43;10.23;;;;;;;17.21;50.61;99426.25;5054185;28;20446;-75
2021/04/30 00:27:05;;;;;;;12.88;10.38;;;;;;;17.21;51.09;99430.75;5054583;28;20496;-77
2021/04/30 00:29:30;;;;;;;13.15;11.85;;;;;;;17.23;50.86;99436.69;5054371;28;20100;-75
2021/04/30 00:31:56;;;;;;;14.00;10.98;;;;;;;17.11;50.77;99425.97;5058893;28;20104;-76
2021/04/30 00:34:21;;;;;;;12.82;11.38;;;;;;;17.09;51.11;99425.34;5057015;28;20032;-79
2021/04/30 00:36:47;;;;;;;11.95;10.70;;;;;;;17.07;51.16;99424.75;5037107;28;20108;-75
2021/04/30 00:39:12;;;;;;;11.85;10.65;;;;;;;17.00;51.07;99418.66;5054380;28;20438;-75
2021/04/30 00:41:39;;;;;;;12.32;10.65;;;;;;;17.00;51.07;99416.81;5054414;28;20033;-76
2021/04/30 00:44:06;;;;;;;11.82;10.57;;;;;;;17.00;51.07;99413.34;5036658;28;20059;-78
2021/04/30 00:46:31;;;;;;;12.75;11.30;;;;;;;17.01;51.06;99420.28;5054241;28;20036;-76
2021/04/30 00:48:57;;;;;;;14.75;10.50;;;;;;;16.98;50.92;99423.41;5054243;28;20033;-75
2021/04/30 00:51:23;;;;;;;14.18;10.98;;;;;;;16.84;51.24;99409.41;5036456;28;20028;-77
2021/04/30 00:53:48;;;;;;;13.52;10.57;;;;;;;16.89;51.48;99428.22;5054253;28;20047;-75
2021/04/30 00:56:14;;;;;;;12.73;11.35;;;;;;;16.89;51.13;99440.75;5054274;28;20381;-76
2021/04/30 00:58:40;;;;;;;13.32;10.75;;;;;;;16.86;51.18;99428.66;5036471;28;20083;-77
2021/04/30 01:01:07;;;;;;;12.25;10.85;;;;;;;16.82;51.64;99411.47;5054270;28;20063;-77
2021/04/30 01:03:33;;;;;;;14.13;10.65;;;;;;;16.62;51.37;99389.50;5053930;28;20025;-76
2021/04/30 01:05:59;;;;;;;11.43;10.23;;;;;;;16.62;51.23;99397.50;5054495;28;20116;-75
2021/04/30 01:08:24;;;;;;;12.57;11.35;;;;;;;16.45;51.93;99366.09;5057957;28;20159;-76
2021/04/30 01:10:49;;;;;;;12.60;10.82;;;;;;;16.53;51.76;99407.66;5057978;28;20070;-75
2021/04/30 01:13:15;;;;;;;11.60;10.50;;;;;;;16.50;51.96;99397.44;5057931;28;20094;-76
2021/04/30 01:15:40;;;;;;;11.98;10.55;;;;;;;16.50;51.94;99408.91;5040170;28;20370;-75
2021/04/30 01:18:06;;;;;;;13.13;10.57;;;;;;;16.47;52.12;99409.34;5040097;28;20021;-75
2021/04/30 01:20:31;;;;;;;14.98;10.82;;;;;;;16.47;51.96;99393.34;5057957;28;20462;-76
2021/04/30 01:22:57;;;;;;;12.15;10.80;;;;;;;16.47;52.16;99388.03;5057746;28;20105;-76
2021/04/30 01:25:27;;;;;;;11.82;10.68;;;;;;;16.44;52.15;99375.13;5039625;28;20179;-77
2021/04/30 01:27:56;;;;;;;14.60;10.57;;;;;;;16.40;52.11;99381.13;5057793;28;20017;-76
2021/04/30 01:30:25;;;;;;;12.18;10.98;;;;;;;16.43;52.09;99378.03;5057587;28;20455;-76
2021/04/30 01:32:50;;;;;;;15.77;11.77;;;;;;;16.04;51.86;99317.91;5057511;28;20032;-74
2021/04/30 01:35:25;;;;;;;11.57;10.18;;;;;;;16.29;52.42;99371.16;5057616;28;20017;-77
2021/04/30 01:37:51;;;;;;;10.82;9.40;;;;;;;16.33;52.33;99367.84;5057698;28;20021;-77
2021/04/30 01:40:22;;;;;;;10.82;9.73;;;;;;;16.40;52.40;99367.81;5057710;28;20520;-75
2021/04/30 01:43:03;;;;;;;14.15;10.85;;;;;;;16.45;51.99;99368.78;5057524;28;20100;-75
2021/04/30 01:45:33;;;;;;;11.80;10.57;;;;;;;16.31;52.29;99353.09;5057137;28;20025;-77
2021/04/30 01:47:58;;;;;;;12.43;10.30;;;;;;;16.39;52.41;99352.84;5057553;28;20052;-77
2021/04/30 01:50:24;;;;;;;14.13;11.00;;;;;;;16.46;52.42;99361.59;5039521;28;20021;-77
2021/04/30 01:52:49;;;;;;;11.45;10.32;;;;;;;16.50;52.23;99376.91;5039604;28;20021;-76
2021/04/30 01:55:15;;;;;;;13.15;10.65;;;;;;;16.49;52.07;99364.63;5057233;28;20062;-78
2021/04/30 01:57:46;;;;;;;12.88;11.07;;;;;;;16.62;51.71;99376.19;5057074;28;20025;-76
2021/04/30 02:00:26;;;;;;;14.73;11.27;;;;;;;16.56;51.97;99383.22;5039335;28;20058;-75
2021/04/30 02:02:53;;;;;;;11.65;10.20;;;;;;;16.60;51.88;99391.59;5057182;28;20037;-76
2021/04/30 02:05:19;;;;;;;14.77;10.85;;;;;;;16.08;52.31;99356.38;5056933;28;20028;-75
2021/04/30 02:07:45;;;;;;;14.40;10.52;;;;;;;16.08;52.23;99375.03;5039229;28;20047;-75
2021/04/30 02:10:23;;;;;;;11.25;10.10;;;;;;;16.16;52.31;99412.03;5056936;28;20044;-75
2021/04/30 02:12:50;;;;;;;11.68;9.57;;;;;;;16.06;52.58;99409.88;5039164;28;20029;-76
2021/04/30 02:15:18;;;;;;;11.48;9.93;;;;;;;15.86;52.92;99417.19;5039117;28;20036;-76
2021/04/30 02:17:43;;;;;;;12.73;11.23;;;;;;;15.85;52.71;99431.53;5056569;28;20021;-75
2021/04/30 02:20:10;;;;;;;12.07;10.85;;;;;;;14.98;53.33;99347.00;5057692;28;20094;-74
2021/04/30 02:22:37;;;;;;;13.02;10.95;;;;;;;15.47;53.89;99434.97;5040272;28;20059;-76
2021/04/30 02:25:04;;;;;;;16.73;11.88;;;;;;;15.49;53.97;99424.09;5060069;28;20041;-76
2021/04/30 02:27:30;;;;;;;11.80;10.60;;;;;;;15.55;53.73;99423.25;5058932;28;20075;-75
2021/04/30 02:29:56;;;;;;;12.75;11.00;;;;;;;15.61;53.52;99432.28;5056710;28;20032;-77
2021/04/30 02:32:22;;;;;;;13.05;11.15;;;;;;;15.73;53.71;99443.88;5056634;28;20082;-77
2021/04/30 02:34:48;;;;;;;14.38;11.38;;;;;;;15.84;53.26;99445.88;5038897;28;20045;-75
2021/04/30 02:37:14;;;;;;;13.98;12.23;;;;;;;15.92;53.42;99461.59;5056403;28;20061;-76
2021/04/30 02:39:39;;;;;;;15.88;13.98;;;;;;;15.85;53.23;99442.19;5056231;28;20017;-76
2021/04/30 02:42:05;;;;;;;17.40;13.88;;;;;;;15.89;53.53;99454.84;5056259;28;20025;-76
2021/04/30 02:44:31;;;;;;;15.40;13.07;;;;;;;15.88;53.87;99447.06;5056046;28;20085;-75
2021/04/30 02:46:57;;;;;;;16.02;13.55;;;;;;;15.82;53.81;99435.44;5056207;28;20025;-75
2021/04/30 02:52:23;;;;;;;15.00;12.65;;;;;;;16.03;53.56;99417.47;4994958;28;20031;-76
2021/04/30 02:54:49;;;;;;;15.82;14.23;;;;;;;16.14;53.47;99422.91;5043362;28;20090;-76
2021/04/30 02:57:14;;;;;;;17.27;14.77;;;;;;;16.02;53.31;99398.03;5056061;28;20031;-75
2021/04/30 02:59:41;;;;;;;16.90;14.23;;;;;;;16.15;53.61;99421.88;5038167;28;20515;-76
2021/04/30 03:02:08;;;;;;;17.10;14.00;;;;;;;16.18;53.59;99425.97;5055970;28;20074;-75
2021/04/30 03:04:34;;;;;;;15.63;13.75;;;;;;;16.23;53.82;99430.63;5055720;28;20419;-75
2021/04/30 03:06:59;;;;;;;19.08;15.20;;;;;;;16.08;53.89;99410.47;5055872;28;20032;-76
2021/04/30 03:09:25;;;;;;;17.80;15.30;;;;;;;16.28;53.48;99447.59;5055809;28;20029;-76
2021/04/30 03:11:50;;;;;;;17.70;14.70;;;;;;;16.23;53.41;99444.78;5055655;28;20039;-75
2021/04/30 03:14:16;;;;;;;16.75;15.00;;;;;;;16.14;53.57;99443.41;5055685;28;20017;-75
2021/04/30 03:16:41;;;;;;;18.13;16.05;;;;;;;16.00;53.54;99434.69;5055500;28;20342;-76
2021/04/30 03:19:06;;;;;;;20.73;16.27;;;;;;;16.21;53.75;99473.47;5055808;28;20104;-75
2021/04/30 03:21:32;;;;;;;21.50;17.73;;;;;;;16.25;53.77;99461.34;5055470;28;20031;-75
2021/04/30 03:23:57;;;;;;;21.83;17.98;;;;;;;16.01;54.42;99467.47;5055456;28;20029;-75
2021/04/30 03:26:23;;;;;;;21.73;16.98;;;;;;;16.01;54.33;99452.31;5055290;28;20041;-73
2021/04/30 03:28:49;;;;;;;26.90;18.05;;;;;;;15.72;54.18;99407.66;5054791;28;20036;-76
2021/04/30 03:31:14;;;;;;;20.67;16.77;;;;;;;16.09;54.42;99470.69;5055505;28;20103;-77
2021/04/30 03:33:40;;;;;;;20.88;16.95;;;;;;;16.12;54.10;99475.59;5055312;28;20025;-76
2021/04/30 03:36:06;;;;;;;23.50;18.10;;;;;;;16.13;54.14;99484.41;5055273;28;20082;-76
2021/04/30 03:38:33;;;;;;;20.58;18.38;;;;;;;16.14;54.42;99494.03;5055165;28;20040;-76
2021/04/30 03:40:59;;;;;;;21.65;18.17;;;;;;;16.16;54.22;99505.28;5055109;28;20025;-76
2021/04/30 03:43:24;;;;;;;24.50;19.23;;;;;;;15.86;54.26;99467.78;5055181;28;20028;-74
2021/04/30 03:45:50;;;;;;;22.88;18.63;;;;;;;15.83;54.50;99482.31;5055035;28;20076;-76
2021/04/30 03:48:17;;;;;;;20.50;18.20;;;;;;;15.85;54.09;99484.78;5037353;28;20111;-75
2021/04/30 03:50:43;;;;;;;21.48;19.15;;;;;;;16.12;54.12;99522.72;5054957;28;20174;-75
2021/04/30 03:53:08;;;;;;;21.98;18.45;;;;;;;16.15;54.29;99523.09;5055069;28;20447;-75
2021/04/30 03:55:33;;;;;;;25.65;18.38;;;;;;;16.01;54.46;99494.91;5037106;28;20017;-75
2021/04/30 03:57:59;;;;;;;22.65;18.67;;;;;;;16.04;54.15;99499.81;5054902;28;20031;-74
2021/04/30 04:00:24;;;;;;;24.33;19.63;;;;;;;16.19;53.91;99510.16;5054840;28;20431;-75
2021/04/30 04:02:50;;;;;;;23.13;19.75;;;;;;;16.32;53.81;99528.72;5054749;28;20036;-76
2021/04/30 04:05:16;;;;;;;24.88;19.55;;;;;;;16.28;54.29;99519.53;5054800;28;20014;-75
2021/04/30 04:07:41;;;;;;;22.08;18.45;;;;;;;16.34;53.79;99531.19;5054605;28;20107;-76
2021/04/30 04:10:07;;;;;;;21.42;18.67;;;;;;;16.47;54.06;99529.25;5054955;28;20027;-76
2021/04/30 04:12:33;;;;;;;22.40;19.70;;;;;;;16.45;54.08;99534.00;5036824;28;20338;-76
2021/04/30 04:14:59;;;;;;;21.90;18.40;;;;;;;16.34;53.65;99520.53;5054665;28;20025;-75
2021/04/30 04:17:24;;;;;;;22.67;20.35;;;;;;;15.91;53.53;99448.50;5054615;28;20013;-76
2021/04/30 04:19:49;;;;;;;26.52;20.50;;;;;;;16.44;54.04;99543.03;5058247;28;20043;-76
2021/04/30 04:22:16;;;;;;;26.27;19.73;;;;;;;16.53;53.96;99544.41;5038046;28;20021;-76
2021/04/30 04:24:42;;;;;;;21.23;18.95;;;;;;;16.46;54.06;99540.16;5054044;28;20124;-75
2021/04/30 04:27:09;;;;;;;25.25;18.35;;;;;;;16.46;53.85;99540.97;5054454;28;20036;-76
2021/04/30 04:29:35;;;;;;;24.10;17.35;;;;;;;16.42;54.00;99539.75;5036814;28;20053;-76
2021/04/30 04:32:00;;;;;;;21.08;17.35;;;;;;;16.51;54.25;99545.63;5054606;28;20045;-76
2021/04/30 04:34:26;;;;;;;25.65;17.13;;;;;;;16.49;53.87;99551.19;5054424;28;20482;-76
2021/04/30 04:36:52;;;;;;;20.27;17.25;;;;;;;16.52;53.87;99544.59;5036743;28;20025;-75
2021/04/30 04:39:18;;;;;;;22.02;17.05;;;;;;;16.51;53.80;99529.66;5054602;28;20147;-76
2021/04/30 04:41:43;;;;;;;22.42;17.48;;;;;;;16.69;53.92;99566.25;5057589;28;20435;-75
2021/04/30 04:44:08;;;;;;;23.27;17.83;;;;;;;16.65;53.85;99541.03;5058357;28;20108;-75
2021/04/30 04:46:34;;;;;;;23.92;17.90;;;;;;;16.52;53.66;99524.09;5058380;28;20492;-76
2021/04/30 04:48:59;;;;;;;21.77;17.20;;;;;;;16.86;53.77;99588.66;5058468;28;20028;-76
2021/04/30 04:51:25;;;;;;;25.52;18.30;;;;;;;16.79;53.93;99572.72;5040691;28;20350;-76
2021/04/30 04:53:50;;;;;;;23.00;18.17;;;;;;;16.83;53.86;99562.44;5058214;28;20017;-75
2021/04/30 04:56:16;;;;;;;20.77;17.48;;;;;;;16.44;53.61;99500.38;5058280;28;20021;-75
2021/04/30 04:58:41;;;;;;;22.38;16.88;;;;;;;16.77;53.24;99549.97;5040366;28;20036;-75
2021/04/30 05:01:07;;;;;;;20.65;17.88;;;;;;;16.73;53.36;99554.94;5058195;28;20107;-76
2021/04/30 05:03:33;;;;;;;22.00;17.83;;;;;;;16.95;53.16;99565.22;5058044;28;20021;-75
2021/04/30 05:05:58;;;;;;;23.67;18.05;;;;;;;16.93;53.10;99560.09;5058091;28;20009;-76
2021/04/30 05:08:23;;;;;;;25.60;19.45;;;;;;;17.01;53.48;99567.00;5058043;28;20025;-78
2021/04/30 05:10:49;;;;;;;24.85;20.05;;;;;;;17.07;53.08;99571.47;5057860;28;20032;-76
2021/04/30 05:13:14;;;;;;;30.20;22.48;;;;;;;16.68;52.88;99506.78;5057957;28;20025;-76
2021/04/30 05:15:40;;;;;;;29.92;21.92;;;;;;;16.87;53.16;99530.81;5057700;28;20025;-77
2021/04/30 05:18:06;;;;;;;29.73;23.40;;;;;;;17.08;53.30;99568.56;5057881;28;20410;-76
2021/04/30 05:20:31;;;;;;;29.75;23.17;;;;;;;17.01;53.12;99565.16;5057741;28;20028;-76
2021/04/30 05:22:56;;;;;;;26.85;23.48;;;;;;;16.89;53.49;99544.75;5057870;28;20343;-77
2021/04/30 05:25:22;;;;;;;35.72;23.83;;;;;;;16.91;53.32;99548.81;5057605;28;20061;-77
2021/04/30 05:27:48;;;;;;;31.63;22.38;;;;;;;17.08;53.29;99573.91;5057609;28;20381;-76
2021/04/30 05:30:14;;;;;;;27.83;22.20;;;;;;;17.04;53.38;99558.56;5057541;28;20025;-77
2021/04/30 05:32:39;;;;;;;26.92;22.48;;;;;;;17.30;53.30;99586.88;5057531;28;20172;-76
2021/04/30 05:35:06;;;;;;;30.63;22.38;;;;;;;17.37;53.21;99590.28;5057765;28;20013;-76
2021/04/30 05:37:32;;;;;;;24.52;20.75;;;;;;;17.30;52.74;99565.53;5057531;28;20208;-75
2021/04/30 05:39:59;;;;;;;33.30;22.38;;;;;;;17.46;53.00;99586.28;5057422;28;20316;-77
2021/04/30 05:42:25;;;;;;;26.17;21.33;;;;;;;17.54;52.78;99606.53;5057429;28;20028;-77
2021/04/30 05:44:52;;;;;;;30.60;22.65;;;;;;;17.57;52.85;99598.91;5057115;28;20025;-75
2021/04/30 05:47:17;;;;;;;27.05;21.95;;;;;;;17.44;52.84;99565.16;5039564;28;20510;-77
2021/04/30 05:49:43;;;;;;;28.52;21.40;;;;;;;17.70;52.79;99588.09;5057157;28;20105;-75
2021/04/30 05:52:08;;;;;;;29.42;20.85;;;;;;;17.73;52.65;99602.88;5056478;28;20032;-77
2021/04/30 05:54:34;;;;;;;26.60;20.80;;;;;;;17.57;52.77;99579.41;5057085;28;20013;-77
2021/04/30 05:56:59;;;;;;;27.52;21.30;;;;;;;17.79;52.74;99593.97;5039555;28;20021;-77
2021/04/30 05:59:24;;;;;;;25.83;19.35;;;;;;;17.67;52.89;99577.88;5057190;28;20423;-76
2021/04/30 06:01:50;;;;;;;30.63;22.05;;;;;;;17.54;52.75;99553.16;5039221;28;20021;-76
2021/04/30 06:04:16;;;;;;;25.25;19.83;;;;;;;17.40;52.78;99525.78;5056921;28;20439;-77
2021/04/30 06:06:42;;;;;;;26.23;18.83;;;;;;;17.60;53.03;99560.25;5056887;28;20033;-75
2021/04/30 06:09:07;;;;;;;22.60;18.13;;;;;;;17.46;52.93;99531.03;5057089;28;20025;-74
2021/04/30 06:11:33;;;;;;;24.20;18.00;;;;;;;17.79;53.11;99591.28;5058584;28;20033;-76
2021/04/30 06:13:58;;;;;;;22.73;17.10;;;;;;;18.00;53.17;99619.41;5062237;28;20029;-75
2021/04/30 06:16:24;;;;;;;22.55;15.68;;;;;;;18.00;53.22;99612.22;5039039;28;20016;-76
2021/04/30 06:18:49;;;;;;;17.92;13.98;;;;;;;17.97;53.49;99609.19;5056705;28;20497;-73
2021/04/30 06:21:14;;;;;;;19.67;14.20;;;;;;;17.89;53.84;99601.47;5056939;28;20020;-75
2021/04/30 06:23:40;;;;;;;21.58;14.82;;;;;;;18.02;53.60;99614.66;5056407;28;20029;-75
2021/04/30 06:26:05;;;;;;;18.02;13.80;;;;;;;18.01;53.69;99597.81;5056416;28;20037;-76
2021/04/30 06:28:30;;;;;;;22.58;14.93;;;;;;;17.93;53.82;99586.63;5056494;28;20021;-76
2021/04/30 06:30:56;;;;;;;19.02;14.63;;;;;;;18.17;53.83;99627.63;5038739;28;20423;-76
2021/04/30 06:33:22;;;;;;;19.48;15.38;;;;;;;18.16;53.61;99610.78;5056409;28;20029;-76
2021/04/30 06:35:48;;;;;;;18.85;14.57;;;;;;;18.33;53.92;99632.34;5056229;28;20027;-76
2021/04/30 06:38:14;;;;;;;18.02;13.82;;;;;;;18.38;53.67;99627.16;5038619;28;20025;-75
2021/04/30 06:40:39;;;;;;;18.13;12.40;;;;;;;18.08;53.62;99565.69;5038591;28;20031;-76
2021/04/30 06:43:04;;;;;;;17.13;13.48;;;;;;;18.55;53.72;99608.59;5056314;28;20102;-79
2021/04/30 06:45:32;;;;;;;17.70;12.52;;;;;;;18.64;53.43;99605.44;5056045;28;20025;-76
2021/04/30 06:47:57;;;;;;;16.63;11.70;;;;;;;18.66;53.34;99598.00;5056217;28;20028;-76
2021/04/30 06:50:22;;;;;;;19.85;13.93;;;;;;;18.83;53.34;99606.16;5056177;28;20029;-75
2021/04/30 06:52:48;;;;;;;12.63;9.82;;;;;;;18.81;52.80;99586.88;5055984;28;20024;-76
2021/04/30 06:55:13;;;;;;;19.77;13.02;;;;;;;19.01;52.73;99600.72;5056136;28;20009;-75
2021/04/30 06:57:39;;;;;;;13.73;10.75;;;;;;;18.90;52.35;99566.75;5055869;28;20366;-75
2021/04/30 07:00:05;;;;;;;15.98;12.15;;;;;;;19.32;52.20;99606.78;5055958;28;20059;-77
2021/04/30 07:02:31;;;;;;;15.27;12.00;;;;;;;19.30;52.25;99574.88;5055835;28;20074;-76
2021/04/30 07:04:57;;;;;;;27.08;14.93;;;;;;;19.10;52.18;99518.22;5054831;28;20029;-76
2021/04/30 07:07:23;;;;;;;16.40;13.02;;;;;;;19.67;52.16;99594.22;5055908;28;20021;-76
2021/04/30 07:09:49;;;;;;;21.17;13.27;;;;;;;19.81;51.72;99596.66;5055727;28;20451;-76
2021/04/30 07:12:15;;;;;;;13.45;10.68;;;;;;;19.86;51.44;99578.00;5055769;28;20028;-76
2021/04/30 07:14:40;;;;;;;17.10;13.68;;;;;;;19.98;51.35;99574.22;5055569;28;20020;-75
2021/04/30 07:17:05;;;;;;;16.20;11.13;;;;;;;19.94;51.29;99557.00;5037928;28;20455;-74
2021/04/30 07:19:31;;;;;;;16.38;11.77;;;;;;;20.27;51.30;99587.66;5055465;28;20033;-76
2021/04/30 07:21:56;;;;;;;14.93;11.57;;;;;;;20.35;51.14;99587.28;5037942;28;20398;-77
2021/04/30 07:24:22;;;;;;;17.05;11.05;;;;;;;20.24;51.11;99550.59;5055721;28;20053;-75
2021/04/30 07:26:47;;;;;;;13.15;9.57;;;;;;;20.53;50.54;99578.22;5056309;28;20041;-77
2021/04/30 07:29:13;;;;;;;19.60;11.40;;;;;;;20.41;50.93;99547.97;5055723;28;20021;-77
2021/04/30 07:31:38;;;;;;;16.92;12.05;;;;;;;20.74;50.33;99584.75;5055198;28;20021;-74
2021/04/30 07:34:04;;;;;;;15.98;12.35;;;;;;;20.72;50.49;99560.84;5055207;28;20021;-76
2021/04/30 07:36:29;;;;;;;18.33;12.75;;;;;;;20.64;50.33;99529.06;5055295;28;20037;-77
2021/04/30 07:38:54;;;;;;;17.60;12.18;;;;;;;20.90;50.21;99568.69;5055437;28;20021;-76
2021/04/30 07:41:20;;;;;;;17.67;12.05;;;;;;;21.01;50.45;99579.56;5055226;28;20427;-76
2021/04/30 07:43:45;;;;;;;17.63;11.68;;;;;;;21.13;49.80;99583.78;5054850;28;20403;-76
2021/04/30 07:46:11;;;;;;;16.80;11.77;;;;;;;21.15;49.84;99568.25;5055153;28;20036;-76
2021/04/30 07:48:37;;;;;;;13.80;11.45;;;;;;;21.07;49.56;99538.31;5054803;28;20449;-74
2021/04/30 07:51:02;;;;;;;17.80;11.30;;;;;;;21.31;50.17;99572.00;5054839;28;20053;-75
2021/04/30 07:53:30;;;;;;;20.20;10.68;;;;;;;21.41;50.05;99577.50;5055077;28;20283;-76
2021/04/30 07:55:55;;;;;;;16.60;10.63;;;;;;;21.07;50.11;99508.78;5054941;28;20021;-77
2021/04/30 07:58:25;;;;;;;17.42;10.75;;;;;;;21.59;50.13;99575.63;5054856;28;20024;-77
2021/04/30 08:00:52;;;;;;;19.73;11.18;;;;;;;21.45;49.87;99540.22;5060098;28;20032;-76
2021/04/30 08:03:19;;;;;;;17.02;10.82;;;;;;;21.58;49.59;99539.06;5060174;28;20036;-75
2021/04/30 08:05:45;;;;;;;15.48;10.38;;;;;;;21.71;49.51;99542.19;5054622;28;20036;-77
2021/04/30 08:08:10;;;;;;;16.60;9.70;;;;;;;21.91;49.60;99571.19;5037027;28;20374;-75
2021/04/30 08:10:35;;;;;;;15.25;10.05;;;;;;;21.92;49.43;99567.44;5054579;28;20082;-77
2021/04/30 08:13:01;;;;;;;15.75;11.05;;;;;;;22.04;49.35;99584.25;5054691;28;20422;-74
2021/04/30 08:15:26;;;;;;;17.67;10.93;;;;;;;22.07;49.38;99577.56;5054388;28;20507;-75
2021/04/30 08:17:52;;;;;;;18.00;10.73;;;;;;;21.77;49.34;99503.56;5054634;28;20033;-76
2021/04/30 08:20:17;;;;;;;18.90;11.38;;;;;;;22.28;48.85;99562.44;5054485;28;20025;-77
2021/04/30 08:22:43;;;;;;;14.57;10.20;;;;;;;22.32;48.77;99567.09;5054242;28;20025;-76
2021/04/30 08:25:09;;;;;;;19.17;10.70;;;;;;;22.36;48.82;99573.59;5054615;28;20041;-75
2021/04/30 08:27:36;;;;;;;19.70;11.00;;;;;;;22.46;48.64;99587.16;5054530;28;20075;-76
2021/04/30 08:30:04;;;;;;;15.57;11.15;;;;;;;22.49;48.53;99586.63;5054519;28;20120;-77
2021/04/30 08:32:30;;;;;;;15.68;10.75;;;;;;;22.46;48.45;99554.03;5054461;28;20135;-76
2021/04/30 08:34:55;;;;;;;16.25;11.10;;;;;;;22.66;48.04;99565.00;5055071;28;20096;-76
2021/04/30 08:37:21;;;;;;;15.38;10.65;;;;;;;22.75;47.96;99563.44;5057479;28;20362;-77
2021/04/30 08:39:46;;;;;;;13.18;10.85;;;;;;;22.92;47.62;99570.59;5060322;28;20025;-74
2021/04/30 08:42:11;;;;;;;17.60;12.65;;;;;;;23.19;47.07;99574.06;5058735;28;20025;-77
2021/04/30 08:44:38;;;;;;;19.63;12.50;;;;;;;23.33;46.68;99561.75;5056692;28;20029;-76
2021/04/30 08:47:04;;;;;;;21.38;12.48;;;;;;;23.39;46.40;99541.84;5054615;28;20036;-74
2021/04/30 08:49:30;;;;;;;16.45;10.85;;;;;;;23.75;45.94;99566.28;5072150;28;20027;-76
2021/04/30 08:51:55;;;;;;;16.17;11.70;;;;;;;23.56;46.11;99524.69;5053500;28;20020;-76
2021/04/30 08:54:21;;;;;;;11.55;9.63;;;;;;;23.73;46.00;99544.16;5072957;28;20022;-76
2021/04/30 08:56:54;;;;;;;15.00;10.05;;;;;;;23.84;45.89;99528.88;5074261;28;20114;-77
2021/04/30 08:59:25;;;;;;;14.15;9.77;;;;;;;23.94;45.62;99521.63;5059712;28;20427;-76
2021/04/30 09:01:50;;;;;;;15.55;10.73;;;;;;;24.38;45.65;99558.94;5065338;28;20029;-76
2021/04/30 09:04:16;;;;;;;15.80;10.93;;;;;;;24.59;45.18;99563.31;5053846;28;20032;-75
2021/04/30 09:06:42;;;;;;;15.15;10.07;;;;;;;24.77;44.48;99563.84;5053960;28;20025;-77
2021/04/30 09:09:09;;;;;;;13.48;9.68;;;;;;;24.79;44.29;99530.09;5054684;28;20096;-77
2021/04/30 09:11:45;;;;;;;17.35;10.23;;;;;;;25.24;43.90;99556.25;5062734;28;20450;-78
2021/04/30 09:14:37;;;;;;;17.48;11.25;;;;;;;25.52;43.35;99552.16;5074204;28;20012;-77
2021/04/30 09:17:09;;;;;;;13.10;8.88;;;;;;;25.54;42.76;99547.28;5041613;28;20090;-74
2021/04/30 09:19:37;;;;;;;13.77;10.23;;;;;;;25.78;42.33;99554.78;5059426;28;20044;-75
2021/04/30 09:22:08;;;;;;;14.13;9.07;;;;;;;25.30;42.36;99451.69;5066909;28;20025;-74
2021/04/30 09:24:34;;;;;;;13.35;8.43;;;;;;;25.95;41.84;99518.16;5035961;28;20025;-77
2021/04/30 09:27:01;;;;;;;15.20;9.95;;;;;;;26.25;41.03;99546.97;5054473;28;20048;-75
2021/04/30 09:29:29;;;;;;;13.10;8.93;;;;;;;26.39;41.33;99530.91;5057823;28;20028;-77
2021/04/30 09:31:55;;;;;;;12.85;8.45;;;;;;;26.64;40.84;99537.22;5057430;28;20054;-78
2021/04/30 09:34:33;;;;;;;12.00;8.43;;;;;;;26.77;40.61;99517.63;5057854;28;20396;-77
2021/04/30 09:37:02;;;;;;;13.48;9.00;;;;;;;27.08;39.97;99532.53;5057699;28;20021;-77
2021/04/30 09:39:29;;;;;;;12.10;8.68;;;;;;;27.17;39.76;99538.94;5039969;28;20032;-77
2021/04/30 09:42:11;;;;;;;14.70;8.82;;;;;;;27.23;38.99;99528.84;5057556;28;20048;-77
2021/04/30 09:44:39;;;;;;;11.93;7.82;;;;;;;27.02;39.07;99462.41;5058706;28;20032;-77
2021/04/30 09:47:32;;;;;;;9.93;7.65;;;;;;;27.63;37.22;99524.09;5070876;28;20393;-77
2021/04/30 09:50:04;;;;;;;10.27;7.25;;;;;;;27.69;37.85;99512.91;5058407;28;20032;-76
2021/04/30 09:52:30;;;;;;;11.80;6.32;;;;;;;27.85;36.89;99500.72;5076057;28;20028;-75
2021/04/30 09:55:01;;;;;;;16.48;6.30;;;;;;;27.91;36.21;99490.63;5078585;28;20315;-77
2021/04/30 09:57:28;;;;;;;12.52;7.47;;;;;;;28.21;35.85;99496.69;5081148;28;20047;-76
2021/04/30 09:59:53;;;;;;;11.88;5.60;;;;;;;28.34;34.70;99488.66;5073828;28;20028;-77
2021/04/30 10:02:21;;;;;;;8.60;5.10;;;;;;;28.29;34.05;99493.34;5074226;28;20342;-77
2021/04/30 10:04:49;;;;;;;9.80;5.25;;;;;;;28.43;33.58;99489.59;5058997;28;20025;-76
2021/04/30 10:07:25;;;;;;;8.55;5.20;;;;;;;28.40;32.83;99473.06;5059778;28;20059;-76
2021/04/30 10:10:02;;;;;;;9.45;5.13;;;;;;;28.74;33.20;99494.50;5073923;28;20136;-77
2021/04/30 10:12:28;;;;;;;13.50;5.72;;;;;;;28.70;32.55;99450.00;5064639;28;20111;-76
2021/04/30 10:14:54;;;;;;;11.63;5.88;;;;;;;28.99;31.81;99485.13;5067654;28;20095;-77
2021/04/30 10:17:20;;;;;;;12.60;5.85;;;;;;;29.21;31.83;99492.59;5057224;28;20024;-77
2021/04/30 10:19:49;;;;;;;9.85;5.18;;;;;;;29.33;31.18;99490.97;5060286;28;20024;-77
2021/04/30 10:22:26;;;;;;;8.90;5.40;;;;;;;29.42;31.25;99494.59;5056292;28;20039;-77
2021/04/30 10:24:59;;;;;;;12.52;5.75;;;;;;;29.53;30.66;99465.28;5076575;28;20143;-75
2021/04/30 10:27:24;;;;;;;9.55;4.68;;;;;;;29.73;30.44;99491.28;5056462;28;20082;-75
2021/04/30 10:30:01;;;;;;;10.52;5.18;;;;;;;29.38;30.53;99414.72;5075982;28;20020;-76
2021/04/30 10:32:31;;;;;;;9.23;5.63;;;;;;;29.97;30.46;99483.66;5076540;28;20036;-74
2021/04/30 10:34:56;;;;;;;8.90;5.10;;;;;;;30.01;30.03;99475.66;5075946;28;20008;-75
2021/04/30 10:37:31;;;;;;;9.10;4.28;;;;;;;30.23;29.28;99491.25;5075763;28;20037;-76
2021/04/30 10:40:01;;;;;;;13.73;4.80;;;;;;;30.34;29.05;99485.25;5070533;28;20029;-76
2021/04/30 10:42:31;;;;;;;10.00;4.70;;;;;;;30.42;28.95;99486.41;5074733;28;20394;-77
2021/04/30 10:44:59;;;;;;;11.13;4.80;;;;;;;30.55;29.12;99479.31;5076252;28;20104;-77
2021/04/30 10:47:25;;;;;;;9.55;4.28;;;;;;;30.52;28.57;99471.75;5076222;28;20043;-75
2021/04/30 10:50:13;;;;;;;10.25;4.70;;;;;;;30.58;29.28;99467.78;5076220;28;20024;-76
2021/04/30 10:52:40;;;;;;;11.30;4.95;;;;;;;30.30;28.71;99410.69;5074622;28;20056;-77
2021/04/30 10:55:08;;;;;;;9.65;5.25;;;;;;;30.83;28.47;99467.13;5075825;28;20029;-74
2021/04/30 10:57:54;;;;;;;11.35;4.72;;;;;;;31.00;28.35;99482.78;5076126;28;20029;-75
2021/04/30 11:00:26;;;;;;;10.00;4.50;;;;;;;30.61;28.66;99407.22;5076099;28;20029;-75
2021/04/30 11:03:23;;;;;;;10.15;3.90;;;;;;;30.90;26.99;99451.13;5075950;28;20572;-79
2021/04/30 11:06:05;;;;;;;9.63;3.65;;;;;;;31.03;27.50;99471.22;5054985;28;20040;-78
2021/04/30 11:08:47;;;;;;;7.03;3.78;;;;;;;30.95;25.74;99437.34;5076092;28;20350;-77
2021/04/30 11:11:13;;;;;;;9.00;3.58;;;;;;;31.08;25.42;99459.38;5074725;28;20031;-76
2021/04/30 11:13:39;;;;;;;11.00;3.40;;;;;;;30.76;24.92;99425.09;5075656;28;20142;-76
2021/04/30 11:16:04;;;;;;;7.97;3.35;;;;;;;31.07;24.78;99438.69;5074658;28;20109;-76
2021/04/30 11:18:59;;;;;;;11.80;4.10;;;;;;;31.53;23.71;99443.66;5075718;28;20032;-77
2021/04/30 11:21:49;;;;;;;10.15;3.40;;;;;;;31.71;22.58;99439.03;5074783;28;20029;-78